sensor_id;sensor_type;location;lat;lon;timestamp;pressure;altitude;pressure_sealevel;temperature;humidity
55317;BME280;41178;48.956;8.130;2023-04-26T00:04:09;99921.19;;;8.87;55.57
55317;BME280;41178;48.956;8.130;2023-04-26T00:09:11;99887.19;;;8.56;56.19
55317;BME280;41178;48.956;8.130;2023-04-26T00:14:13;99977.50;;;10.35;52.93
55317;BME280;41178;48.956;8.130;2023-04-26T00:19:14;99998.91;;;10.96;51.29
55317;BME280;41178;48.956;8.130;2023-04-26T00:24:17;99904.16;;;9.44;52.36
55317;BME280;41178;48.956;8.130;2023-04-26T00:29:18;99994.31;;;10.90;50.73
55317;BME280;41178;48.956;8.130;2023-04-26T00:34:20;99907.56;;;9.61;51.61
55317;BME280;41178;48.956;8.130;2023-04-26T00:39:22;99990.84;;;10.81;50.05
55317;BME280;41178;48.956;8.130;2023-04-26T00:44:23;99999.22;;;11.01;49.52
55317;BME280;41178;48.956;8.130;2023-04-26T00:49:25;99761.25;;;7.88;55.77
55317;BME280;41178;48.956;8.130;2023-04-26T00:54:27;99851.56;;;8.16;56.44
55317;BME280;41178;48.956;8.130;2023-04-26T00:59:29;99919.84;;;8.58;55.52
55317;BME280;41178;48.956;8.130;2023-04-26T01:04:30;99907.53;;;8.24;55.53
55317;BME280;41178;48.956;8.130;2023-04-26T01:09:33;99863.19;;;7.98;54.80
55317;BME280;41178;48.956;8.130;2023-04-26T01:14:34;99968.16;;;9.12;53.32
55317;BME280;41178;48.956;8.130;2023-04-26T01:19:48;99890.34;;;8.35;53.50
55317;BME280;41178;48.956;8.130;2023-04-26T01:24:51;99915.50;;;8.48;53.82
55317;BME280;41178;48.956;8.130;2023-04-26T01:29:55;99979.41;;;10.26;50.30
55317;BME280;41178;48.956;8.130;2023-04-26T01:34:56;99903.69;;;8.51;51.98
55317;BME280;41178;48.956;8.130;2023-04-26T01:39:58;99828.28;;;7.50;54.45
55317;BME280;41178;48.956;8.130;2023-04-26T01:45:00;99960.75;;;9.78;50.32
55317;BME280;41178;48.956;8.130;2023-04-26T01:50:02;99896.19;;;7.97;52.91
55317;BME280;41178;48.956;8.130;2023-04-26T01:55:04;99959.22;;;8.47;52.33
55317;BME280;41178;48.956;8.130;2023-04-26T02:00:06;99968.88;;;8.65;51.62
55317;BME280;41178;48.956;8.130;2023-04-26T02:05:09;99969.38;;;8.93;50.82
55317;BME280;41178;48.956;8.130;2023-04-26T02:10:12;99996.13;;;9.41;50.00
55317;BME280;41178;48.956;8.130;2023-04-26T02:15:14;100007.19;;;9.77;49.08
55317;BME280;41178;48.956;8.130;2023-04-26T02:20:15;100006.38;;;9.77;48.59
55317;BME280;41178;48.956;8.130;2023-04-26T02:25:17;99863.13;;;7.73;52.33
55317;BME280;41178;48.956;8.130;2023-04-26T02:30:19;99802.88;;;7.05;54.50
55317;BME280;41178;48.956;8.130;2023-04-26T02:35:21;99821.31;;;6.98;54.72
55317;BME280;41178;48.956;8.130;2023-04-26T02:40:22;99928.63;;;7.84;52.48
55317;BME280;41178;48.956;8.130;2023-04-26T02:45:24;99913.03;;;7.55;53.49
55317;BME280;41178;48.956;8.130;2023-04-26T02:50:26;99763.44;;;6.32;54.54
55317;BME280;41178;48.956;8.130;2023-04-26T02:55:27;99861.72;;;6.94;54.71
55317;BME280;41178;48.956;8.130;2023-04-26T03:00:29;99917.78;;;7.35;53.81
55317;BME280;41178;48.956;8.130;2023-04-26T03:05:31;99734.00;;;5.99;55.78
55317;BME280;41178;48.956;8.130;2023-04-26T03:10:33;99789.13;;;6.23;55.89
55317;BME280;41178;48.956;8.130;2023-04-26T03:15:34;99830.84;;;6.49;55.22
55317;BME280;41178;48.956;8.130;2023-04-26T03:20:36;99802.09;;;6.26;54.88
55317;BME280;41178;48.956;8.130;2023-04-26T03:25:37;99642.69;;;5.11;57.12
55317;BME280;41178;48.956;8.130;2023-04-26T03:30:39;99637.47;;;4.84;57.40
55317;BME280;41178;48.956;8.130;2023-04-26T03:35:42;99808.56;;;5.79;56.52
55317;BME280;41178;48.956;8.130;2023-04-26T03:40:44;99753.63;;;5.44;56.62
55317;BME280;41178;48.956;8.130;2023-04-26T03:45:46;99740.63;;;5.23;56.31
55317;BME280;41178;48.956;8.130;2023-04-26T03:50:49;99924.41;;;6.52;54.42
55317;BME280;41178;48.956;8.130;2023-04-26T03:55:51;99992.63;;;8.01;50.99
55317;BME280;41178;48.956;8.130;2023-04-26T04:00:56;100018.06;;;8.54;49.88
55317;BME280;41178;48.956;8.130;2023-04-26T04:05:58;100005.03;;;8.43;49.00
55317;BME280;41178;48.956;8.130;2023-04-26T04:11:00;99978.22;;;7.43;49.78
55317;BME280;41178;48.956;8.130;2023-04-26T04:16:02;99886.72;;;6.57;50.20
55317;BME280;41178;48.956;8.130;2023-04-26T04:21:05;100002.69;;;7.81;48.39
55317;BME280;41178;48.956;8.130;2023-04-26T04:26:07;100045.84;;;8.35;47.78
55317;BME280;41178;48.956;8.130;2023-04-26T04:31:09;100042.31;;;7.84;48.79
55317;BME280;41178;48.956;8.130;2023-04-26T04:36:11;100058.34;;;8.35;48.19
55317;BME280;41178;48.956;8.130;2023-04-26T04:41:13;100073.31;;;8.87;47.31
55317;BME280;41178;48.956;8.130;2023-04-26T04:46:15;100039.38;;;7.87;49.35
55317;BME280;41178;48.956;8.130;2023-04-26T04:51:17;100021.34;;;7.46;49.06
55317;BME280;41178;48.956;8.130;2023-04-26T04:56:18;99957.38;;;6.77;50.59
55317;BME280;41178;48.956;8.130;2023-04-26T05:01:20;100086.69;;;8.36;48.35
55317;BME280;41178;48.956;8.130;2023-04-26T05:06:22;100021.69;;;7.51;48.41
55317;BME280;41178;48.956;8.130;2023-04-26T05:11:24;99804.22;;;5.60;52.41
55317;BME280;41178;48.956;8.130;2023-04-26T05:16:26;99697.56;;;4.65;55.38
55317;BME280;41178;48.956;8.130;2023-04-26T05:21:28;99775.16;;;4.95;55.09
55317;BME280;41178;48.956;8.130;2023-04-26T05:26:29;99956.25;;;6.08;53.37
55317;BME280;41178;48.956;8.130;2023-04-26T05:31:31;99975.41;;;6.30;52.42
55317;BME280;41178;48.956;8.130;2023-04-26T05:36:33;100065.31;;;7.24;50.62
55317;BME280;41178;48.956;8.130;2023-04-26T05:41:34;100019.78;;;6.73;51.22
55317;BME280;41178;48.956;8.130;2023-04-26T05:46:36;100027.03;;;6.81;51.29
55317;BME280;41178;48.956;8.130;2023-04-26T05:51:38;100066.03;;;7.34;50.26
55317;BME280;41178;48.956;8.130;2023-04-26T05:56:39;100030.81;;;6.96;49.92
55317;BME280;41178;48.956;8.130;2023-04-26T06:01:41;100017.75;;;6.67;51.19
55317;BME280;41178;48.956;8.130;2023-04-26T06:06:43;99923.97;;;5.85;53.01
55317;BME280;41178;48.956;8.130;2023-04-26T06:11:44;100073.31;;;6.88;51.26
55317;BME280;41178;48.956;8.130;2023-04-26T06:16:47;100093.25;;;8.07;50.80
55317;BME280;41178;48.956;8.130;2023-04-26T06:21:48;100120.13;;;8.73;50.42
55317;BME280;41178;48.956;8.130;2023-04-26T06:26:52;100116.34;;;8.33;51.26
55317;BME280;41178;48.956;8.130;2023-04-26T06:31:54;100028.44;;;7.11;51.38
55317;BME280;41178;48.956;8.130;2023-04-26T06:36:55;100109.44;;;8.14;50.64
55317;BME280;41178;48.956;8.130;2023-04-26T06:41:57;100066.00;;;7.61;50.76
55317;BME280;41178;48.956;8.130;2023-04-26T06:46:59;100118.25;;;8.65;49.77
55317;BME280;41178;48.956;8.130;2023-04-26T06:52:00;100100.19;;;8.34;49.85
55317;BME280;41178;48.956;8.130;2023-04-26T06:57:02;100118.50;;;9.21;49.23
55317;BME280;41178;48.956;8.130;2023-04-26T07:02:03;100071.16;;;8.31;50.99
55317;BME280;41178;48.956;8.130;2023-04-26T07:07:05;100119.16;;;9.39;48.93
55317;BME280;41178;48.956;8.130;2023-04-26T07:12:07;99904.75;;;6.45;51.62
55317;BME280;41178;48.956;8.130;2023-04-26T07:17:09;100049.38;;;7.93;50.09
55317;BME280;41178;48.956;8.130;2023-04-26T07:22:10;100088.38;;;8.53;50.83
55317;BME280;41178;48.956;8.130;2023-04-26T07:27:12;100090.59;;;8.66;49.74
55317;BME280;41178;48.956;8.130;2023-04-26T07:32:14;100093.31;;;8.99;49.54
55317;BME280;41178;48.956;8.130;2023-04-26T07:37:15;100090.06;;;8.71;49.55
55317;BME280;41178;48.956;8.130;2023-04-26T07:42:17;100098.16;;;8.87;49.60
55317;BME280;41178;48.956;8.130;2023-04-26T07:47:19;100127.47;;;9.94;48.72
55317;BME280;41178;48.956;8.130;2023-04-26T07:52:20;100105.25;;;9.77;49.41
55317;BME280;41178;48.956;8.130;2023-04-26T07:57:22;100107.25;;;9.83;49.88
55317;BME280;41178;48.956;8.130;2023-04-26T08:02:24;100099.38;;;9.82;49.22
55317;BME280;41178;48.956;8.130;2023-04-26T08:07:44;100093.09;;;9.50;49.30
55317;BME280;41178;48.956;8.130;2023-04-26T08:12:46;100088.97;;;9.14;49.94
55317;BME280;41178;48.956;8.130;2023-04-26T08:17:47;100115.22;;;10.00;48.60
55317;BME280;41178;48.956;8.130;2023-04-26T08:22:56;100118.75;;;10.40;48.83
55317;BME280;41178;48.956;8.130;2023-04-26T08:27:58;100099.03;;;10.01;48.64
55317;BME280;41178;48.956;8.130;2023-04-26T08:33:00;100071.09;;;9.31;47.53
55317;BME280;41178;48.956;8.130;2023-04-26T08:38:01;100121.38;;;11.02;46.83
55317;BME280;41178;48.956;8.130;2023-04-26T08:43:03;100143.91;;;11.31;44.58
55317;BME280;41178;48.956;8.130;2023-04-26T08:48:06;100122.69;;;11.68;44.76
55317;BME280;41178;48.956;8.130;2023-04-26T08:53:16;100034.72;;;10.26;44.51
55317;BME280;41178;48.956;8.130;2023-04-26T08:58:21;100130.50;;;11.69;44.32
55317;BME280;41178;48.956;8.130;2023-04-26T09:03:24;100062.78;;;10.84;41.61
55317;BME280;41178;48.956;8.130;2023-04-26T09:08:27;100005.31;;;9.47;41.73
55317;BME280;41178;48.956;8.130;2023-04-26T09:13:29;100140.53;;;11.75;40.90
55317;BME280;41178;48.956;8.130;2023-04-26T09:18:31;100062.19;;;10.97;40.25
55317;BME280;41178;48.956;8.130;2023-04-26T09:23:34;100070.28;;;11.27;41.17
55317;BME280;41178;48.956;8.130;2023-04-26T09:28:36;100094.03;;;11.83;40.90
55317;BME280;41178;48.956;8.130;2023-04-26T09:33:56;99991.94;;;10.95;39.81
55317;BME280;41178;48.956;8.130;2023-04-26T09:38:58;100109.47;;;12.62;39.34
55317;BME280;41178;48.956;8.130;2023-04-26T09:44:00;100102.00;;;12.79;39.44
55317;BME280;41178;48.956;8.130;2023-04-26T09:49:02;99961.44;;;10.58;40.17
55317;BME280;41178;48.956;8.130;2023-04-26T09:54:04;99921.56;;;10.25;39.75
55317;BME280;41178;48.956;8.130;2023-04-26T09:59:06;100003.69;;;11.84;40.26
55317;BME280;41178;48.956;8.130;2023-04-26T10:04:09;100051.94;;;12.71;39.07
55317;BME280;41178;48.956;8.130;2023-04-26T10:09:11;99895.66;;;11.68;37.34
55317;BME280;41178;48.956;8.130;2023-04-26T10:14:13;99914.72;;;11.95;39.32
55317;BME280;41178;48.956;8.130;2023-04-26T10:19:14;99964.66;;;12.54;37.83
55317;BME280;41178;48.956;8.130;2023-04-26T10:24:17;99971.09;;;12.88;37.24
55317;BME280;41178;48.956;8.130;2023-04-26T10:35:11;99955.81;;;12.88;33.60
55317;BME280;41178;48.956;8.130;2023-04-26T10:40:24;99848.69;;;11.21;34.24
55317;BME280;41178;48.956;8.130;2023-04-26T10:45:28;99933.75;;;11.63;34.61
55317;BME280;41178;48.956;8.130;2023-04-26T10:50:30;99891.09;;;11.32;34.77
55317;BME280;41178;48.956;8.130;2023-04-26T10:55:39;99956.09;;;13.63;34.04
55317;BME280;41178;48.956;8.130;2023-04-26T11:06:52;99895.03;;;10.39;38.85
55317;BME280;41178;48.956;8.130;2023-04-26T11:11:54;99885.16;;;11.37;38.16
55317;BME280;41178;48.956;8.130;2023-04-26T11:16:56;99848.50;;;11.37;38.11
55317;BME280;41178;48.956;8.130;2023-04-26T11:21:58;99860.28;;;12.23;35.96
55317;BME280;41178;48.956;8.130;2023-04-26T11:27:07;99885.78;;;13.80;36.37
55317;BME280;41178;48.956;8.130;2023-04-26T11:32:09;99818.28;;;13.00;35.34
55317;BME280;41178;48.956;8.130;2023-04-26T11:37:14;99798.53;;;13.27;37.03
55317;BME280;41178;48.956;8.130;2023-04-26T11:42:16;99758.31;;;11.66;36.03
55317;BME280;41178;48.956;8.130;2023-04-26T11:47:18;99768.00;;;12.45;35.81
55317;BME280;41178;48.956;8.130;2023-04-26T11:52:20;99779.25;;;13.65;35.55
55317;BME280;41178;48.956;8.130;2023-04-26T11:57:22;99775.03;;;13.29;35.53
55317;BME280;41178;48.956;8.130;2023-04-26T12:02:24;99716.69;;;11.49;36.54
55317;BME280;41178;48.956;8.130;2023-04-26T12:07:25;99754.19;;;13.98;36.35
55317;BME280;41178;48.956;8.130;2023-04-26T12:12:32;99724.19;;;13.61;37.08
55317;BME280;41178;48.956;8.130;2023-04-26T12:17:34;99734.50;;;12.69;35.74
55317;BME280;41178;48.956;8.130;2023-04-26T12:22:35;99709.44;;;11.92;35.83
55317;BME280;41178;48.956;8.130;2023-04-26T12:27:37;99706.09;;;13.02;34.84
55317;BME280;41178;48.956;8.130;2023-04-26T12:32:39;99718.34;;;13.11;34.29
55317;BME280;41178;48.956;8.130;2023-04-26T12:37:42;99692.41;;;12.42;35.42
55317;BME280;41178;48.956;8.130;2023-04-26T12:42:45;99694.84;;;13.66;35.79
55317;BME280;41178;48.956;8.130;2023-04-26T12:47:47;99713.00;;;13.38;35.77
55317;BME280;41178;48.956;8.130;2023-04-26T12:52:49;99698.88;;;14.49;35.31
55317;BME280;41178;48.956;8.130;2023-04-26T12:57:50;99653.06;;;13.84;36.49
55317;BME280;41178;48.956;8.130;2023-04-26T13:02:52;99664.81;;;13.23;36.56
55317;BME280;41178;48.956;8.130;2023-04-26T13:07:54;99621.81;;;13.09;35.78
55317;BME280;41178;48.956;8.130;2023-04-26T13:12:56;99638.72;;;12.97;35.88
55317;BME280;41178;48.956;8.130;2023-04-26T13:17:58;99596.31;;;11.75;36.67
55317;BME280;41178;48.956;8.130;2023-04-26T13:23:00;99613.28;;;14.13;35.50
55317;BME280;41178;48.956;8.130;2023-04-26T13:28:02;99565.31;;;12.01;36.00
55317;BME280;41178;48.956;8.130;2023-04-26T13:33:03;99610.81;;;12.29;35.87
55317;BME280;41178;48.956;8.130;2023-04-26T13:38:05;99602.13;;;13.96;36.89
55317;BME280;41178;48.956;8.130;2023-04-26T13:43:07;99591.56;;;12.61;36.65
55317;BME280;41178;48.956;8.130;2023-04-26T13:48:09;99601.75;;;13.79;36.55
55317;BME280;41178;48.956;8.130;2023-04-26T13:53:10;99537.41;;;11.89;36.81
55317;BME280;41178;48.956;8.130;2023-04-26T13:58:12;99625.13;;;13.18;36.47
55317;BME280;41178;48.956;8.130;2023-04-26T14:03:14;99583.78;;;13.26;36.84
55317;BME280;41178;48.956;8.130;2023-04-26T14:08:16;99552.75;;;14.67;35.81
55317;BME280;41178;48.956;8.130;2023-04-26T14:13:18;99591.16;;;14.04;36.57
55317;BME280;41178;48.956;8.130;2023-04-26T14:18:20;99575.94;;;13.58;37.16
55317;BME280;41178;48.956;8.130;2023-04-26T14:23:22;99583.09;;;13.97;37.06
55317;BME280;41178;48.956;8.130;2023-04-26T14:28:23;99500.50;;;13.98;35.82
55317;BME280;41178;48.956;8.130;2023-04-26T14:33:25;99532.81;;;15.07;36.30
55317;BME280;41178;48.956;8.130;2023-04-26T14:38:26;99551.22;;;14.08;35.87
55317;BME280;41178;48.956;8.130;2023-04-26T14:43:28;99521.31;;;14.61;35.52
55317;BME280;41178;48.956;8.130;2023-04-26T14:48:30;99482.16;;;14.33;35.60
55317;BME280;41178;48.956;8.130;2023-04-26T14:53:31;99498.13;;;14.28;35.43
55317;BME280;41178;48.956;8.130;2023-04-26T14:58:33;99476.03;;;14.83;34.21
55317;BME280;41178;48.956;8.130;2023-04-26T15:03:35;99431.06;;;13.23;36.19
55317;BME280;41178;48.956;8.130;2023-04-26T15:08:37;99487.78;;;14.89;34.84
55317;BME280;41178;48.956;8.130;2023-04-26T15:13:38;99452.78;;;15.07;35.82
55317;BME280;41178;48.956;8.130;2023-04-26T15:18:40;99515.47;;;14.64;35.08
55317;BME280;41178;48.956;8.130;2023-04-26T15:23:41;99468.59;;;14.47;35.03
55317;BME280;41178;48.956;8.130;2023-04-26T15:28:43;99462.41;;;15.40;35.00
55317;BME280;41178;48.956;8.130;2023-04-26T15:33:45;99481.88;;;15.24;34.78
55317;BME280;41178;48.956;8.130;2023-04-26T15:38:47;99369.81;;;13.52;35.13
55317;BME280;41178;48.956;8.130;2023-04-26T15:43:53;99453.00;;;14.55;35.27
55317;BME280;41178;48.956;8.130;2023-04-26T15:48:56;99455.34;;;15.95;34.07
55317;BME280;41178;48.956;8.130;2023-04-26T15:53:57;99434.72;;;16.00;35.22
55317;BME280;41178;48.956;8.130;2023-04-26T15:58:59;99414.06;;;14.58;34.58
55317;BME280;41178;48.956;8.130;2023-04-26T16:04:00;99449.69;;;15.84;33.55
55317;BME280;41178;48.956;8.130;2023-04-26T16:09:02;99394.56;;;15.25;33.25
55317;BME280;41178;48.956;8.130;2023-04-26T16:14:24;99421.41;;;15.87;32.96
55317;BME280;41178;48.956;8.130;2023-04-26T16:19:26;99389.81;;;15.76;32.61
55317;BME280;41178;48.956;8.130;2023-04-26T16:24:28;99429.09;;;16.02;32.43
55317;BME280;41178;48.956;8.130;2023-04-26T16:29:29;99416.47;;;15.47;34.36
55317;BME280;41178;48.956;8.130;2023-04-26T16:34:31;99399.09;;;16.10;34.10
55317;BME280;41178;48.956;8.130;2023-04-26T16:39:33;99394.16;;;16.61;32.98
55317;BME280;41178;48.956;8.130;2023-04-26T16:44:36;99408.97;;;16.70;33.06
55317;BME280;41178;48.956;8.130;2023-04-26T16:49:37;99346.28;;;15.54;33.20
55317;BME280;41178;48.956;8.130;2023-04-26T16:54:39;99276.75;;;14.76;33.88
55317;BME280;41178;48.956;8.130;2023-04-26T16:59:41;99336.88;;;15.44;35.24
55317;BME280;41178;48.956;8.130;2023-04-26T17:04:42;99333.84;;;15.22;33.26
55317;BME280;41178;48.956;8.130;2023-04-26T17:09:44;99382.88;;;16.64;33.85
55317;BME280;41178;48.956;8.130;2023-04-26T17:14:46;99356.72;;;17.29;32.90
55317;BME280;41178;48.956;8.130;2023-04-26T17:19:47;99347.88;;;15.92;34.16
55317;BME280;41178;48.956;8.130;2023-04-26T17:24:49;99372.53;;;16.37;33.57
55317;BME280;41178;48.956;8.130;2023-04-26T17:29:51;99331.50;;;16.17;32.79
55317;BME280;41178;48.956;8.130;2023-04-26T17:34:53;99368.75;;;16.27;32.89
55317;BME280;41178;48.956;8.130;2023-04-26T17:39:55;99349.03;;;17.09;32.57
55317;BME280;41178;48.956;8.130;2023-04-26T17:44:57;99329.19;;;16.79;33.00
55317;BME280;41178;48.956;8.130;2023-04-26T17:49:59;99268.41;;;15.33;33.95
55317;BME280;41178;48.956;8.130;2023-04-26T17:55:01;99345.41;;;17.44;32.09
55317;BME280;41178;48.956;8.130;2023-04-26T18:00:03;99338.19;;;16.14;33.05
55317;BME280;41178;48.956;8.130;2023-04-26T18:05:07;99330.91;;;16.03;33.24
55317;BME280;41178;48.956;8.130;2023-04-26T18:10:09;99375.53;;;17.35;32.80
55317;BME280;41178;48.956;8.130;2023-04-26T18:15:10;99365.84;;;17.11;33.24
55317;BME280;41178;48.956;8.130;2023-04-26T18:20:13;99349.97;;;16.91;33.55
55317;BME280;41178;48.956;8.130;2023-04-26T18:25:15;99347.50;;;16.89;33.99
55317;BME280;41178;48.956;8.130;2023-04-26T18:30:17;99363.00;;;17.17;33.31
55317;BME280;41178;48.956;8.130;2023-04-26T18:35:19;99323.69;;;16.51;34.55
55317;BME280;41178;48.956;8.130;2023-04-26T18:40:21;99315.81;;;16.37;35.28
55317;BME280;41178;48.956;8.130;2023-04-26T18:45:22;99317.81;;;16.42;35.54
55317;BME280;41178;48.956;8.130;2023-04-26T18:50:24;99303.31;;;15.10;36.94
55317;BME280;41178;48.956;8.130;2023-04-26T18:55:26;99377.19;;;15.58;37.13
55317;BME280;41178;48.956;8.130;2023-04-26T19:00:28;99356.47;;;15.70;36.87
55317;BME280;41178;48.956;8.130;2023-04-26T19:05:29;99379.53;;;15.84;35.94
55317;BME280;41178;48.956;8.130;2023-04-26T19:10:31;99348.50;;;15.26;35.77
55317;BME280;41178;48.956;8.130;2023-04-26T19:15:33;99291.59;;;13.15;37.81
55317;BME280;41178;48.956;8.130;2023-04-26T19:20:35;99251.13;;;11.77;41.04
55317;BME280;41178;48.956;8.130;2023-04-26T19:25:37;99443.88;;;13.14;39.75
55317;BME280;41178;48.956;8.130;2023-04-26T19:30:39;99453.47;;;14.46;37.51
55317;BME280;41178;48.956;8.130;2023-04-26T19:35:40;99407.19;;;13.60;37.02
55317;BME280;41178;48.956;8.130;2023-04-26T19:40:42;99407.28;;;13.40;36.61
55317;BME280;41178;48.956;8.130;2023-04-26T19:45:45;99346.25;;;12.08;38.43
55317;BME280;41178;48.956;8.130;2023-04-26T19:50:47;99358.81;;;11.94;37.82
55317;BME280;41178;48.956;8.130;2023-04-26T19:55:48;99497.97;;;13.51;37.76
55317;BME280;41178;48.956;8.130;2023-04-26T20:00:51;99483.84;;;13.76;36.95
55317;BME280;41178;48.956;8.130;2023-04-26T20:05:52;99475.88;;;13.42;37.32
55317;BME280;41178;48.956;8.130;2023-04-26T20:10:54;99470.34;;;13.04;38.70
55317;BME280;41178;48.956;8.130;2023-04-26T20:15:56;99429.22;;;12.30;39.15
55317;BME280;41178;48.956;8.130;2023-04-26T20:20:57;99517.81;;;13.70;38.45
55317;BME280;41178;48.956;8.130;2023-04-26T20:25:59;99454.97;;;12.04;38.88
55317;BME280;41178;48.956;8.130;2023-04-26T20:31:01;99538.66;;;13.81;36.60
55317;BME280;41178;48.956;8.130;2023-04-26T20:36:02;99529.44;;;14.16;37.02
55317;BME280;41178;48.956;8.130;2023-04-26T20:41:05;99531.84;;;14.37;37.31
55317;BME280;41178;48.956;8.130;2023-04-26T20:46:06;99530.16;;;14.36;36.21
55317;BME280;41178;48.956;8.130;2023-04-26T20:51:08;99537.59;;;13.89;36.93
55317;BME280;41178;48.956;8.130;2023-04-26T20:56:10;99531.63;;;14.32;36.05
55317;BME280;41178;48.956;8.130;2023-04-26T21:01:12;99535.69;;;14.10;36.08
55317;BME280;41178;48.956;8.130;2023-04-26T21:06:13;99510.00;;;13.48;36.28
55317;BME280;41178;48.956;8.130;2023-04-26T21:11:15;99408.06;;;11.73;37.94
55317;BME280;41178;48.956;8.130;2023-04-26T21:16:17;99381.34;;;11.10;39.57
55317;BME280;41178;48.956;8.130;2023-04-26T21:21:18;99494.81;;;12.21;38.53
55317;BME280;41178;48.956;8.130;2023-04-26T21:26:20;99423.06;;;11.26;39.85
55317;BME280;41178;48.956;8.130;2023-04-26T21:31:22;99450.59;;;11.13;39.61
55317;BME280;41178;48.956;8.130;2023-04-26T21:36:24;99475.63;;;11.34;38.98
55317;BME280;41178;48.956;8.130;2023-04-26T21:41:26;99457.72;;;10.99;40.36
55317;BME280;41178;48.956;8.130;2023-04-26T21:46:28;99551.78;;;12.23;38.78
55317;BME280;41178;48.956;8.130;2023-04-26T21:51:30;99522.97;;;11.55;39.32
55317;BME280;41178;48.956;8.130;2023-04-26T21:56:32;99465.06;;;10.91;39.60
55317;BME280;41178;48.956;8.130;2023-04-26T22:01:34;99536.13;;;11.50;38.40
55317;BME280;41178;48.956;8.130;2023-04-26T22:06:35;99487.44;;;10.83;42.39
55317;BME280;41178;48.956;8.130;2023-04-26T22:11:37;99556.66;;;11.64;40.82
55317;BME280;41178;48.956;8.130;2023-04-26T22:16:39;99499.53;;;10.57;42.03
55317;BME280;41178;48.956;8.130;2023-04-26T22:21:40;99520.47;;;10.32;41.68
55317;BME280;41178;48.956;8.130;2023-04-26T22:26:42;99420.66;;;9.22;43.08
55317;BME280;41178;48.956;8.130;2023-04-26T22:31:44;99504.34;;;9.59;43.37
55317;BME280;41178;48.956;8.130;2023-04-26T22:36:46;99584.88;;;11.10;41.88
55317;BME280;41178;48.956;8.130;2023-04-26T22:41:47;99564.34;;;12.15;38.90
55317;BME280;41178;48.956;8.130;2023-04-26T22:46:49;99601.13;;;11.87;40.36
55317;BME280;41178;48.956;8.130;2023-04-26T22:51:52;99597.31;;;11.18;41.69
55317;BME280;41178;48.956;8.130;2023-04-26T22:57:09;99577.84;;;11.94;41.02
55317;BME280;41178;48.956;8.130;2023-04-26T23:02:11;99600.28;;;11.30;41.63
55317;BME280;41178;48.956;8.130;2023-04-26T23:07:15;99493.84;;;9.57;44.46
55317;BME280;41178;48.956;8.130;2023-04-26T23:12:17;99587.59;;;10.74;43.08
55317;BME280;41178;48.956;8.130;2023-04-26T23:17:20;99533.66;;;9.82;44.31
55317;BME280;41178;48.956;8.130;2023-04-26T23:22:22;99599.78;;;11.19;42.42
55317;BME280;41178;48.956;8.130;2023-04-26T23:27:23;99575.47;;;12.61;40.89
55317;BME280;41178;48.956;8.130;2023-04-26T23:32:25;99627.50;;;11.83;41.70
55317;BME280;41178;48.956;8.130;2023-04-26T23:37:27;99605.31;;;12.44;40.65
55317;BME280;41178;48.956;8.130;2023-04-26T23:42:28;99618.44;;;11.84;41.62
55317;BME280;41178;48.956;8.130;2023-04-26T23:47:30;99613.84;;;11.50;41.86
55317;BME280;41178;48.956;8.130;2023-04-26T23:52:32;99598.19;;;11.25;42.62
55317;BME280;41178;48.956;8.130;2023-04-26T23:57:34;99576.44;;;10.85;43.44
